Time;durP1;ratioP1;P1;durP2;ratioP2;P2;SDS_P1;SDS_P2;PMS_P1;PMS_P2;Temp;Humidity;BMP_temperature;BMP_pressure;BME280_temperature;BME280_humidity;BME280_pressure;Samples;Min_cycle;Max_cycle;Signal;HPM_P1;HPM_P2
2022/08/14 00:01:59;;;;;;;6.30;5.70;;;21.50;58.20;;;;;;5038983;28;20029;-89
2022/08/14 00:04:25;;;;;;;6.45;5.35;;;21.40;58.90;;;;;;5022400;28;20037;-90
2022/08/14 00:06:50;;;;;;;6.28;5.72;;;21.40;56.30;;;;;;5017862;28;20470;-91
2022/08/14 00:09:16;;;;;;;8.48;6.03;;;21.30;60.20;;;;;;5016138;28;20041;-89
2022/08/14 00:11:41;;;;;;;8.20;5.35;;;21.30;59.40;;;;;;5029800;28;20084;-89
2022/08/14 00:14:08;;;;;;;6.75;6.15;;;21.20;57.60;;;;;;5016466;28;20524;-89
2022/08/14 00:16:34;;;;;;;7.32;5.43;;;21.20;57.40;;;;;;5017438;28;20036;-90
2022/08/14 00:18:59;;;;;;;9.27;5.10;;;21.10;59.00;;;;;;5015217;28;20399;-90
2022/08/14 00:21:25;;;;;;;6.20;5.38;;;21.10;57.80;;;;;;5019350;28;20025;-89
2022/08/14 00:23:52;;;;;;;6.70;5.32;;;21.10;57.10;;;;;;5015156;28;20568;-90
2022/08/14 00:26:18;;;;;;;8.35;5.45;;;21.10;56.00;;;;;;5016717;28;20030;-90
2022/08/14 00:28:44;;;;;;;8.02;5.95;;;21.00;55.30;;;;;;5013014;28;20038;-90
2022/08/14 00:31:09;;;;;;;6.25;5.28;;;20.90;55.70;;;;;;5025025;28;20022;-89
2022/08/14 00:33:35;;;;;;;8.93;5.97;;;20.90;55.30;;;;;;5014478;28;20037;-89
2022/08/14 00:36:01;;;;;;;12.48;5.35;;;20.80;56.30;;;;;;5017441;28;20036;-90
2022/08/14 00:38:27;;;;;;;11.27;6.38;;;20.70;55.90;;;;;;5012008;28;20388;-89
2022/08/14 00:40:52;;;;;;;6.57;5.75;;;20.60;58.40;;;;;;5014424;28;20458;-90
2022/08/14 00:43:18;;;;;;;9.48;5.85;;;20.60;56.90;;;;;;5016602;28;20116;-90
2022/08/14 00:45:45;;;;;;;6.70;5.78;;;20.60;56.90;;;;;;5016849;28;20116;-90
2022/08/14 00:48:11;;;;;;;6.13;5.63;;;20.50;57.60;;;;;;5018959;28;20442;-90
2022/08/14 00:50:36;;;;;;;6.63;5.47;;;20.50;59.60;;;;;;5016248;28;20064;-92
2022/08/14 00:53:02;;;;;;;6.30;5.70;;;20.50;58.60;;;;;;5028234;28;20026;-90
2022/08/14 00:55:28;;;;;;;11.05;6.00;;;20.50;57.50;;;;;;5012387;28;20033;-89
2022/08/14 01:00:39;;;;;;;7.22;5.78;;;20.40;58.80;;;;;;5028418;28;20083;-89
2022/08/14 01:03:05;;;;;;;6.57;5.97;;;20.40;59.40;;;;;;5032176;28;20108;-91
2022/08/14 01:05:33;;;;;;;7.60;6.32;;;20.40;57.50;;;;;;5011589;28;20030;-88
2022/08/14 01:07:59;;;;;;;8.48;6.00;;;20.20;59.10;;;;;;5015687;28;20036;-89
2022/08/14 01:10:49;;;;;;;14.85;6.78;;;20.20;60.40;;;;;;5015340;28;20034;-91
2022/08/14 01:13:15;;;;;;;8.02;5.95;;;20.20;59.30;;;;;;5028608;28;20033;-90
2022/08/14 01:15:44;;;;;;;10.07;6.43;;;20.20;59.00;;;;;;5019213;28;20634;-90
2022/08/14 01:21:09;;;;;;;6.90;6.30;;;20.20;59.80;;;;;;5029432;28;20040;-90
2022/08/14 01:23:35;;;;;;;6.63;6.03;;;20.10;58.60;;;;;;5013141;28;20053;-90
2022/08/14 01:26:01;;;;;;;7.30;6.60;;;20.00;59.90;;;;;;5014429;28;20038;-88
2022/08/14 01:28:27;;;;;;;7.32;6.40;;;20.00;61.40;;;;;;5013169;28;20481;-90
2022/08/14 01:30:56;;;;;;;7.63;6.65;;;19.90;62.00;;;;;;5017553;28;20038;-90
2022/08/14 01:33:30;;;;;;;6.75;6.07;;;19.90;61.30;;;;;;5015488;28;20029;-90
2022/08/14 01:36:03;;;;;;;7.15;6.05;;;20.00;62.50;;;;;;5015446;28;20037;-90
2022/08/14 01:38:34;;;;;;;7.50;6.53;;;20.00;62.20;;;;;;5015421;28;20112;-89
2022/08/14 01:41:01;;;;;;;8.82;6.03;;;20.00;63.30;;;;;;5013995;28;20026;-89
2022/08/14 01:43:29;;;;;;;9.65;6.78;;;20.00;62.80;;;;;;5016751;28;20041;-90
2022/08/14 01:45:57;;;;;;;12.25;6.68;;;20.00;63.90;;;;;;5015281;28;20084;-91
2022/08/14 01:48:23;;;;;;;8.15;6.72;;;19.90;65.40;;;;;;5028800;28;20505;-89
2022/08/14 01:50:49;;;;;;;6.97;6.30;;;19.90;64.40;;;;;;5013600;28;20029;-90
2022/08/14 01:53:16;;;;;;;7.65;6.95;;;19.90;66.00;;;;;;5012637;28;20472;-90
2022/08/14 01:55:42;;;;;;;7.15;6.47;;;19.80;62.90;;;;;;5015479;28;20401;-89
2022/08/14 01:58:14;;;;;;;9.65;6.97;;;19.90;68.90;;;;;;5017057;28;20025;-90
2022/08/14 02:00:40;;;;;;;7.88;7.13;;;19.80;63.50;;;;;;5017401;28;20616;-90
2022/08/14 02:03:06;;;;;;;7.25;6.50;;;19.70;64.20;;;;;;5029802;28;20032;-88
2022/08/14 02:05:31;;;;;;;10.00;6.90;;;19.70;65.10;;;;;;5016390;28;20021;-88
2022/08/14 02:07:57;;;;;;;9.82;7.25;;;19.70;64.10;;;;;;5018222;28;20043;-89
2022/08/14 02:10:27;;;;;;;8.02;7.22;;;19.70;69.30;;;;;;5014974;28;20033;-90
2022/08/14 02:12:54;;;;;;;8.10;7.07;;;19.60;63.50;;;;;;5015671;28;20033;-90
2022/08/14 02:15:20;;;;;;;7.88;7.10;;;19.70;66.70;;;;;;5026799;28;20083;-89
2022/08/14 02:17:47;;;;;;;8.57;7.10;;;19.60;66.50;;;;;;5014951;28;20026;-89
2022/08/14 02:20:12;;;;;;;7.60;6.80;;;19.60;66.70;;;;;;5013312;28;20030;-89
2022/08/14 02:22:38;;;;;;;7.75;7.03;;;19.50;69.30;;;;;;5019514;28;20044;-91
2022/08/14 02:25:04;;;;;;;8.82;7.78;;;19.50;72.30;;;;;;5025656;28;20048;-89
2022/08/14 02:27:30;;;;;;;7.90;7.10;;;19.60;69.40;;;;;;5028828;28;20026;-89
2022/08/14 02:29:55;;;;;;;8.68;7.70;;;19.60;67.40;;;;;;5016665;28;20078;-90
2022/08/14 02:32:21;;;;;;;8.60;7.13;;;19.50;69.00;;;;;;5015185;28;20014;-90
2022/08/14 02:34:47;;;;;;;9.00;6.63;;;19.50;68.10;;;;;;5018700;28;20040;-91
2022/08/14 02:37:14;;;;;;;8.02;7.22;;;19.40;68.50;;;;;;5030568;28;20457;-90
2022/08/14 02:39:43;;;;;;;8.30;7.22;;;19.30;72.00;;;;;;5031230;28;20429;-89
2022/08/14 02:42:11;;;;;;;9.65;7.60;;;19.30;67.30;;;;;;5000869;28;20074;-90
2022/08/14 02:44:38;;;;;;;8.10;7.40;;;19.20;68.80;;;;;;5015777;28;20041;-89
2022/08/14 02:47:04;;;;;;;7.90;7.15;;;19.20;70.10;;;;;;5028631;28;20030;-90
2022/08/14 02:49:29;;;;;;;12.20;8.15;;;19.20;72.20;;;;;;5011403;28;20532;-89
2022/08/14 02:51:55;;;;;;;7.72;6.90;;;19.20;71.60;;;;;;5012577;28;20102;-90
2022/08/14 02:54:25;;;;;;;12.98;8.20;;;19.20;67.90;;;;;;5016806;28;20095;-90
2022/08/14 02:56:56;;;;;;;9.13;8.05;;;19.00;66.90;;;;;;5017247;28;20087;-90
2022/08/14 02:59:23;;;;;;;8.60;7.05;;;19.10;73.00;;;;;;5011232;28;20259;-90
2022/08/14 03:01:49;;;;;;;8.70;7.80;;;19.10;71.70;;;;;;5016295;28;20053;-90
2022/08/14 03:04:15;;;;;;;9.48;8.43;;;19.10;71.30;;;;;;5016334;28;20037;-90
2022/08/14 03:06:42;;;;;;;11.18;8.30;;;19.20;74.20;;;;;;5013880;28;20040;-92
2022/08/14 03:09:08;;;;;;;11.15;8.32;;;19.20;74.80;;;;;;5030457;28;20034;-92
2022/08/14 03:11:34;;;;;;;8.10;7.40;;;19.20;75.70;;;;;;5028413;28;20033;-91
2022/08/14 03:13:59;;;;;;;10.82;8.07;;;19.20;74.40;;;;;;5030952;28;20041;-92
2022/08/14 03:16:25;;;;;;;7.82;7.03;;;19.10;72.40;;;;;;5012536;28;20109;-91
2022/08/14 03:18:53;;;;;;;9.02;8.13;;;19.10;74.00;;;;;;5013318;28;20029;-91
2022/08/14 03:21:21;;;;;;;8.60;7.90;;;19.10;71.20;;;;;;5016522;28;20041;-91
2022/08/14 03:23:48;;;;;;;8.10;7.40;;;19.00;74.20;;;;;;5014077;28;20056;-91
2022/08/14 03:26:18;;;;;;;10.20;8.60;;;19.00;75.60;;;;;;5010728;28;20029;-91
2022/08/14 03:28:46;;;;;;;9.85;8.50;;;18.90;76.80;;;;;;5019108;28;20780;-91
2022/08/14 03:31:12;;;;;;;9.13;8.23;;;19.00;75.50;;;;;;5020729;28;20579;-90
2022/08/14 03:33:39;;;;;;;8.27;7.50;;;18.90;76.40;;;;;;5010370;28;20038;-91
2022/08/14 03:36:13;;;;;;;9.80;8.90;;;18.90;68.70;;;;;;5027904;28;20033;-92
2022/08/14 03:38:41;;;;;;;9.10;7.35;;;18.90;75.80;;;;;;5024587;28;20451;-91
2022/08/14 03:41:13;;;;;;;11.80;8.77;;;18.90;69.60;;;;;;5025217;28;20063;-90
2022/08/14 03:43:40;;;;;;;9.73;7.95;;;19.00;72.10;;;;;;5015861;28;20397;-89
2022/08/14 03:46:05;;;;;;;10.23;7.45;;;18.90;70.50;;;;;;5022148;28;20037;-91
2022/08/14 03:48:31;;;;;;;11.82;9.27;;;18.90;71.20;;;;;;5014289;28;20038;-89
2022/08/14 03:50:58;;;;;;;10.90;8.82;;;18.80;70.20;;;;;;5029428;28;20941;-90
2022/08/14 03:53:24;;;;;;;10.70;8.63;;;18.70;74.60;;;;;;5029844;28;20033;-90
2022/08/14 03:55:49;;;;;;;10.32;8.80;;;18.60;75.20;;;;;;5013668;28;20036;-91
2022/08/14 03:58:16;;;;;;;12.82;9.48;;;18.50;79.70;;;;;;5012362;28;20041;-90
2022/08/14 04:00:44;;;;;;;13.57;8.48;;;18.40;82.10;;;;;;5013867;28;20025;-90
2022/08/14 04:03:10;;;;;;;10.65;9.38;;;18.40;81.80;;;;;;5013778;28;20044;-90
2022/08/14 04:05:37;;;;;;;13.93;12.38;;;18.40;83.70;;;;;;5014467;28;20030;-91
2022/08/14 04:08:04;;;;;;;12.07;10.88;;;18.40;83.70;;;;;;5014442;28;20026;-90
2022/08/14 04:10:30;;;;;;;10.55;9.35;;;18.30;84.80;;;;;;5014106;28;20056;-90
2022/08/14 04:12:59;;;;;;;11.77;9.40;;;18.30;88.00;;;;;;5014887;28;20033;-89
2022/08/14 04:15:25;;;;;;;9.95;9.05;;;18.20;88.20;;;;;;5019593;28;20025;-91
2022/08/14 04:17:52;;;;;;;9.43;8.35;;;18.20;88.10;;;;;;5016370;28;20035;-90
2022/08/14 04:20:21;;;;;;;9.65;8.57;;;18.20;90.00;;;;;;5011439;28;20087;-90
2022/08/14 04:22:49;;;;;;;10.25;9.35;;;18.20;90.70;;;;;;5031259;28;20048;-90
2022/08/14 04:25:17;;;;;;;10.15;9.07;;;18.10;91.50;;;;;;5036147;28;20506;-91
2022/08/14 04:27:43;;;;;;;9.23;8.38;;;18.10;91.40;;;;;;5034915;28;20599;-90
2022/08/14 04:30:09;;;;;;;10.55;8.52;;;18.20;80.90;;;;;;5018335;28;20025;-90
2022/08/14 04:32:34;;;;;;;14.73;9.75;;;18.20;80.70;;;;;;5025390;28;20040;-91
2022/08/14 04:35:00;;;;;;;8.90;7.25;;;18.20;88.10;;;;;;5020992;28;20444;-90
2022/08/14 04:45:43;;;;;;;10.07;9.07;;;18.20;90.30;;;;;;5027707;28;20454;-90
2022/08/14 04:48:13;;;;;;;9.00;8.20;;;18.30;77.10;;;;;;5028312;28;20033;-90
2022/08/14 04:50:44;;;;;;;8.85;7.97;;;18.30;89.10;;;;;;5020480;28;20030;-90
2022/08/14 04:53:11;;;;;;;10.18;9.15;;;18.40;78.60;;;;;;5019824;28;20535;-90
2022/08/14 04:55:38;;;;;;;10.48;9.52;;;18.40;84.40;;;;;;5020301;28;20159;-90
2022/08/14 04:58:04;;;;;;;9.05;8.23;;;18.40;85.30;;;;;;5011638;28;20050;-91
2022/08/14 05:00:30;;;;;;;10.77;9.48;;;18.40;83.90;;;;;;5013860;28;20517;-90
2022/08/14 05:02:58;;;;;;;10.73;9.63;;;18.40;80.10;;;;;;5014693;28;20033;-90
2022/08/14 05:05:24;;;;;;;13.00;9.23;;;18.50;89.00;;;;;;5016522;28;20545;-89
2022/08/14 05:07:50;;;;;;;10.25;9.25;;;18.70;85.30;;;;;;5015336;28;20038;-89
2022/08/14 05:10:20;;;;;;;10.23;9.18;;;18.80;85.00;;;;;;5021138;28;20041;-90
2022/08/14 05:12:46;;;;;;;10.10;9.10;;;18.90;75.00;;;;;;5017991;28;20036;-90
2022/08/14 05:15:12;;;;;;;10.75;8.73;;;19.00;72.60;;;;;;5027862;28;20034;-90
2022/08/14 05:17:42;;;;;;;12.80;9.75;;;19.10;73.10;;;;;;5023701;28;20624;-89
2022/08/14 05:20:08;;;;;;;11.95;9.13;;;19.20;72.70;;;;;;5010042;28;20118;-91
2022/08/14 05:22:33;;;;;;;11.68;9.10;;;19.30;77.00;;;;;;5019539;28;20041;-89
2022/08/14 05:25:00;;;;;;;12.52;9.30;;;19.40;71.90;;;;;;5014333;28;20041;-89
2022/08/14 05:27:26;;;;;;;10.85;9.80;;;19.40;69.50;;;;;;5014540;28;20033;-89
2022/08/14 05:29:55;;;;;;;10.80;8.90;;;19.50;71.90;;;;;;5014729;28;20041;-89
2022/08/14 05:32:22;;;;;;;13.20;10.15;;;19.60;72.20;;;;;;5033643;28;20037;-90
2022/08/14 05:34:49;;;;;;;10.13;8.90;;;19.70;76.70;;;;;;5016111;28;20580;-90
2022/08/14 05:37:15;;;;;;;11.05;9.77;;;19.80;76.20;;;;;;5015114;28;20128;-91
2022/08/14 05:39:40;;;;;;;10.63;9.20;;;20.00;75.50;;;;;;5013585;28;20196;-91
2022/08/14 05:42:06;;;;;;;8.88;7.97;;;20.10;72.50;;;;;;5021959;28;20033;-93
2022/08/14 05:44:32;;;;;;;10.20;9.20;;;20.20;72.10;;;;;;5016940;28;20055;-91
2022/08/14 05:46:58;;;;;;;11.18;10.02;;;20.40;72.40;;;;;;5014249;28;20033;-90
2022/08/14 05:49:27;;;;;;;10.60;9.48;;;20.50;71.80;;;;;;4998700;28;20022;-92
2022/08/14 05:51:53;;;;;;;9.93;8.88;;;20.50;74.90;;;;;;5001568;28;20037;-91
2022/08/14 05:54:18;;;;;;;11.35;10.15;;;20.80;71.40;;;;;;5013436;28;20033;-91
2022/08/14 05:56:45;;;;;;;12.93;9.80;;;20.90;72.00;;;;;;4999751;28;20092;-90
2022/08/14 05:59:11;;;;;;;11.48;10.10;;;21.00;72.20;;;;;;5012076;28;20032;-90
2022/08/14 06:01:37;;;;;;;11.32;10.02;;;21.20;72.90;;;;;;4995012;28;20112;-90
2022/08/14 06:04:02;;;;;;;11.15;9.95;;;21.30;73.30;;;;;;5014298;28;20049;-91
2022/08/14 06:06:28;;;;;;;11.50;10.25;;;21.40;72.10;;;;;;5013500;28;20505;-91
2022/08/14 06:08:54;;;;;;;16.17;10.25;;;21.60;73.80;;;;;;4995510;28;20037;-90
2022/08/14 06:11:19;;;;;;;11.40;9.70;;;21.60;76.00;;;;;;4994183;28;20038;-91
2022/08/14 06:13:45;;;;;;;14.65;10.18;;;21.80;76.20;;;;;;5013298;28;20404;-90
2022/08/14 06:16:10;;;;;;;12.00;10.20;;;22.00;75.20;;;;;;5014445;28;20024;-90
2022/08/14 06:18:36;;;;;;;10.27;9.27;;;22.10;74.90;;;;;;5027895;28;20025;-90
2022/08/14 06:21:02;;;;;;;10.90;9.25;;;22.20;75.30;;;;;;5013697;28;20029;-93
2022/08/14 06:23:28;;;;;;;9.20;8.38;;;22.40;72.60;;;;;;5022271;28;20072;-90
2022/08/14 06:25:54;;;;;;;14.65;9.57;;;22.60;72.70;;;;;;5013939;28;20037;-91
2022/08/14 06:28:21;;;;;;;11.23;9.85;;;22.80;71.10;;;;;;5016200;28;20026;-92
2022/08/14 06:30:47;;;;;;;11.05;9.05;;;22.90;71.90;;;;;;5030088;28;20033;-92
2022/08/14 06:33:14;;;;;;;17.55;9.23;;;23.00;70.70;;;;;;5026974;28;20375;-92
2022/08/14 06:35:39;;;;;;;9.02;8.20;;;23.20;71.10;;;;;;5014781;28;20041;-91
2022/08/14 06:38:07;;;;;;;9.75;8.80;;;23.40;70.30;;;;;;5017273;28;20173;-92
2022/08/14 06:40:34;;;;;;;10.48;9.50;;;23.50;71.70;;;;;;5019160;28;20029;-92
2022/08/14 06:43:06;;;;;;;8.77;7.88;;;23.70;71.50;;;;;;5017990;28;20033;-90
2022/08/14 06:45:33;;;;;;;14.70;10.18;;;23.80;70.40;;;;;;5034616;28;20077;-92
2022/08/14 06:48:00;;;;;;;9.80;8.90;;;24.00;72.30;;;;;;5018669;28;20406;-92
2022/08/14 06:50:26;;;;;;;9.95;8.77;;;24.20;70.80;;;;;;5018692;28;20485;-92
2022/08/14 06:52:52;;;;;;;10.25;9.23;;;24.30;69.80;;;;;;5019950;28;20022;-91
2022/08/14 06:55:24;;;;;;;10.65;9.65;;;24.50;71.70;;;;;;4999079;28;20034;-93
2022/08/14 06:57:50;;;;;;;10.15;8.98;;;24.50;71.90;;;;;;5019855;28;20497;-92
2022/08/14 07:00:19;;;;;;;9.75;8.93;;;24.70;70.80;;;;;;5020446;28;20436;-93
2022/08/14 07:05:45;;;;;;;10.02;8.32;;;24.90;69.40;;;;;;5017153;28;20128;-93
2022/08/14 07:08:28;;;;;;;11.25;9.25;;;25.10;69.00;;;;;;5033351;28;20060;-93
2022/08/14 07:10:55;;;;;;;9.98;8.50;;;25.20;69.80;;;;;;5009938;28;20034;-92
2022/08/14 07:13:21;;;;;;;10.13;8.13;;;25.30;67.70;;;;;;5031991;28;20030;-91
2022/08/14 07:15:49;;;;;;;9.07;8.27;;;25.40;68.30;;;;;;5022576;28;20052;-91
2022/08/14 07:18:21;;;;;;;15.63;8.73;;;25.50;68.90;;;;;;5034580;28;20081;-90
2022/08/14 07:20:46;;;;;;;12.35;9.02;;;25.60;68.60;;;;;;5015204;28;20030;-91
2022/08/14 07:23:12;;;;;;;8.85;8.00;;;25.70;68.20;;;;;;5015701;28;20021;-91
2022/08/14 07:25:39;;;;;;;10.15;8.25;;;25.80;68.10;;;;;;5016026;28;20034;-91
2022/08/14 07:28:14;;;;;;;9.32;8.35;;;25.90;68.60;;;;;;5006065;28;20026;-90
2022/08/14 07:30:40;;;;;;;9.05;8.10;;;26.00;67.70;;;;;;5003055;28;20350;-91
2022/08/14 07:33:05;;;;;;;8.85;8.05;;;26.20;67.90;;;;;;5009675;28;20062;-92
2022/08/14 07:35:33;;;;;;;8.38;7.65;;;26.30;67.50;;;;;;5023495;28;20038;-92
2022/08/14 07:37:58;;;;;;;8.02;7.35;;;26.40;66.00;;;;;;5016220;28;20100;-92
2022/08/14 07:40:24;;;;;;;9.30;8.23;;;26.50;64.80;;;;;;5027162;28;20036;-90
2022/08/14 07:42:49;;;;;;;9.10;8.25;;;26.80;66.00;;;;;;5013058;28;20033;-91
2022/08/14 07:45:15;;;;;;;9.73;8.70;;;26.90;64.40;;;;;;5010314;28;20030;-93
2022/08/14 07:47:41;;;;;;;8.45;7.25;;;27.10;65.90;;;;;;5021414;28;20124;-90
2022/08/14 07:50:19;;;;;;;8.57;7.75;;;27.20;64.50;;;;;;5017228;28;20121;-90
2022/08/14 07:52:46;;;;;;;8.90;8.20;;;27.30;64.80;;;;;;4998977;28;20108;-91
2022/08/14 07:55:13;;;;;;;7.90;7.10;;;27.40;64.20;;;;;;5009527;28;20116;-91
2022/08/14 07:57:39;;;;;;;8.55;7.63;;;27.50;63.10;;;;;;5016506;28;20064;-91
2022/08/14 08:00:10;;;;;;;9.35;7.85;;;27.70;64.00;;;;;;5032422;28;20034;-91
2022/08/14 08:02:37;;;;;;;9.50;8.60;;;27.80;63.40;;;;;;5014313;28;20026;-90
2022/08/14 08:05:03;;;;;;;8.25;7.55;;;28.00;64.00;;;;;;5018841;28;20152;-92
2022/08/14 08:07:31;;;;;;;8.48;7.63;;;28.20;64.50;;;;;;5021140;28;20533;-90
2022/08/14 08:09:58;;;;;;;8.10;7.40;;;28.20;62.50;;;;;;5023812;28;20025;-92
2022/08/14 08:12:25;;;;;;;8.70;6.65;;;28.40;61.00;;;;;;5019256;28;20099;-91
2022/08/14 08:14:51;;;;;;;8.55;7.75;;;28.50;61.40;;;;;;5025590;28;20041;-91
2022/08/14 08:17:19;;;;;;;8.23;7.38;;;28.60;62.30;;;;;;5019831;28;20040;-91
2022/08/14 08:19:46;;;;;;;8.98;7.97;;;28.80;61.40;;;;;;5018439;28;20042;-91
2022/08/14 08:22:11;;;;;;;8.32;7.63;;;29.00;61.20;;;;;;5026076;28;20029;-90
2022/08/14 08:24:37;;;;;;;9.73;8.65;;;29.10;60.80;;;;;;5021852;28;20386;-90
2022/08/14 08:27:16;;;;;;;9.57;8.43;;;29.20;60.80;;;;;;5034758;28;20083;-89
2022/08/14 08:29:41;;;;;;;8.73;7.95;;;29.20;60.80;;;;;;5021140;28;20030;-89
2022/08/14 08:32:07;;;;;;;8.25;7.55;;;29.40;60.30;;;;;;5023453;28;20292;-89
2022/08/14 08:34:44;;;;;;;8.05;7.22;;;29.50;60.20;;;;;;5016072;28;20037;-89
2022/08/14 08:37:09;;;;;;;8.35;7.55;;;29.60;59.50;;;;;;5012382;28;20079;-90
2022/08/14 08:39:45;;;;;;;9.55;7.80;;;29.70;59.20;;;;;;5028116;28;20475;-91
2022/08/14 08:42:10;;;;;;;7.28;6.57;;;29.90;58.90;;;;;;5013462;28;20034;-91
2022/08/14 08:44:36;;;;;;;7.38;6.68;;;30.10;58.10;;;;;;5022093;28;20489;-92
2022/08/14 08:47:06;;;;;;;7.93;6.47;;;30.50;56.70;;;;;;5033923;28;20029;-89
2022/08/14 08:49:41;;;;;;;6.60;6.00;;;30.60;57.10;;;;;;5015710;28;20033;-94
2022/08/14 08:52:07;;;;;;;7.70;6.82;;;30.70;56.30;;;;;;5029501;28;20036;-91
2022/08/14 08:54:33;;;;;;;7.47;6.78;;;30.80;57.60;;;;;;5034754;28;20034;-93
2022/08/14 08:56:58;;;;;;;7.25;6.65;;;31.00;57.10;;;;;;5019815;28;20032;-90
2022/08/14 08:59:25;;;;;;;9.52;7.60;;;30.90;57.30;;;;;;5018856;28;20179;-92
2022/08/14 09:01:57;;;;;;;6.85;6.35;;;30.90;57.40;;;;;;5032193;28;20041;-93
2022/08/14 09:04:24;;;;;;;8.05;6.93;;;31.00;56.40;;;;;;5034944;28;20033;-92
2022/08/14 09:06:49;;;;;;;7.00;6.30;;;31.20;56.90;;;;;;5019943;28;20033;-92
2022/08/14 09:09:26;;;;;;;8.00;7.22;;;31.30;56.70;;;;;;5029136;28;20103;-91
2022/08/14 09:11:54;;;;;;;7.70;6.90;;;31.50;56.00;;;;;;5011592;28;20497;-92
2022/08/14 09:14:25;;;;;;;7.03;6.43;;;31.50;55.60;;;;;;5027214;28;20489;-91
2022/08/14 09:16:51;;;;;;;7.50;6.70;;;31.60;55.00;;;;;;5030862;28;20071;-93
2022/08/14 09:19:20;;;;;;;7.80;7.13;;;31.80;55.00;;;;;;5022772;28;20097;-91
2022/08/14 09:21:46;;;;;;;8.40;7.25;;;32.30;55.00;;;;;;5028430;28;20033;-92
2022/08/14 09:24:12;;;;;;;6.78;6.20;;;32.20;54.70;;;;;;5034985;28;20025;-90
2022/08/14 09:26:40;;;;;;;6.40;5.90;;;32.20;54.90;;;;;;5025459;28;20096;-92
2022/08/14 09:29:06;;;;;;;7.53;6.18;;;32.40;54.20;;;;;;5025618;28;20040;-93
2022/08/14 09:31:34;;;;;;;8.63;7.20;;;32.80;52.90;;;;;;5044193;28;20048;-91
2022/08/14 09:34:27;;;;;;;6.68;6.18;;;32.80;53.80;;;;;;5022698;28;20429;-94
2022/08/14 09:37:29;;;;;;;6.80;6.28;;;32.80;52.50;;;;;;5057617;28;20033;-90
2022/08/14 09:40:19;;;;;;;5.90;5.40;;;33.40;52.00;;;;;;5035677;28;20035;-92
2022/08/14 09:42:48;;;;;;;5.93;5.43;;;33.20;52.40;;;;;;5045241;28;20053;-92
2022/08/14 09:45:32;;;;;;;7.18;6.50;;;33.50;50.80;;;;;;5060965;28;20060;-92
2022/08/14 09:47:59;;;;;;;7.10;6.60;;;33.40;51.50;;;;;;5041780;28;20047;-92
2022/08/14 09:50:31;;;;;;;6.60;6.10;;;33.40;50.00;;;;;;5033462;28;21087;-92
2022/08/14 09:53:04;;;;;;;8.20;6.60;;;33.40;51.00;;;;;;5022510;28;20034;-94
2022/08/14 09:55:33;;;;;;;7.63;7.00;;;33.40;51.40;;;;;;5022202;28;20038;-92
2022/08/14 09:58:19;;;;;;;7.20;6.60;;;33.60;50.30;;;;;;5044624;28;20028;-94
2022/08/14 10:01:00;;;;;;;6.72;5.85;;;33.60;49.50;;;;;;5029941;28;20026;-93
2022/08/14 10:03:41;;;;;;;6.40;5.80;;;33.60;50.00;;;;;;5015590;28;20501;-92
2022/08/14 10:06:10;;;;;;;5.82;5.22;;;33.70;49.20;;;;;;5053327;28;20055;-92
2022/08/14 10:09:02;;;;;;;5.70;5.20;;;33.70;50.00;;;;;;5036828;28;20037;-89
2022/08/14 10:11:34;;;;;;;5.93;5.32;;;33.90;49.40;;;;;;5023048;28;20489;-90
2022/08/14 10:14:17;;;;;;;6.03;5.43;;;33.90;49.40;;;;;;5014248;28;20034;-89
2022/08/14 10:16:46;;;;;;;6.63;4.70;;;34.00;48.80;;;;;;5035013;28;20092;-89
2022/08/14 10:19:13;;;;;;;5.80;5.22;;;34.10;47.90;;;;;;5002248;28;20053;-89
2022/08/14 10:21:42;;;;;;;6.72;5.60;;;34.10;48.20;;;;;;5019071;28;20038;-89
2022/08/14 10:24:09;;;;;;;6.28;5.35;;;34.20;48.10;;;;;;5003963;28;20486;-89
2022/08/14 10:26:34;;;;;;;5.38;4.97;;;34.20;48.20;;;;;;5017111;28;20720;-91
2022/08/14 10:29:08;;;;;;;6.40;5.97;;;34.30;48.50;;;;;;5021601;28;20036;-90
2022/08/14 10:31:34;;;;;;;6.13;5.63;;;34.40;46.80;;;;;;5021031;28;20030;-90
2022/08/14 10:34:07;;;;;;;7.40;6.75;;;34.50;47.60;;;;;;4998153;28;20033;-89
2022/08/14 10:36:40;;;;;;;5.80;5.30;;;34.60;47.30;;;;;;5015040;28;20049;-89
2022/08/14 10:39:13;;;;;;;10.35;6.05;;;34.60;47.90;;;;;;5018088;28;20036;-89
2022/08/14 10:41:45;;;;;;;6.35;5.78;;;34.70;47.30;;;;;;5032343;28;20053;-88
2022/08/14 10:44:16;;;;;;;7.03;6.43;;;34.80;46.90;;;;;;5023465;28;20113;-90
2022/08/14 10:46:57;;;;;;;6.25;5.80;;;34.90;46.50;;;;;;5050163;28;20033;-91
2022/08/14 10:49:25;;;;;;;6.05;5.53;;;35.00;46.10;;;;;;5024627;28;20040;-90
2022/08/14 10:52:07;;;;;;;6.53;6.00;;;34.90;46.00;;;;;;5019032;28;20037;-88
2022/08/14 10:54:43;;;;;;;7.82;6.40;;;35.00;46.80;;;;;;5049344;28;20041;-89
2022/08/14 10:57:14;;;;;;;5.70;5.30;;;35.10;46.70;;;;;;5003120;28;20033;-91
2022/08/14 10:59:41;;;;;;;6.70;6.18;;;35.30;47.40;;;;;;5039918;28;20033;-87
2022/08/14 11:02:36;;;;;;;8.82;5.82;;;35.60;46.20;;;;;;5021053;28;20094;-91
2022/08/14 11:05:16;;;;;;;6.45;5.85;;;35.60;46.80;;;;;;5010770;28;20029;-89
2022/08/14 11:07:53;;;;;;;6.07;5.55;;;35.80;46.20;;;;;;5015145;28;20034;-89
2022/08/14 11:10:19;;;;;;;5.13;4.68;;;36.50;45.40;;;;;;5029805;28;20064;-89
2022/08/14 11:12:55;;;;;;;5.97;5.20;;;37.20;44.60;;;;;;5016557;28;20030;-90
2022/08/14 11:15:26;;;;;;;6.78;6.03;;;36.60;45.00;;;;;;5035292;28;20089;-91
2022/08/14 11:17:52;;;;;;;6.25;5.68;;;36.40;45.10;;;;;;5039892;28;20033;-91
2022/08/14 11:20:19;;;;;;;5.95;5.45;;;36.30;45.50;;;;;;5016377;28;20089;-88
2022/08/14 11:22:46;;;;;;;6.10;5.60;;;36.30;45.50;;;;;;5014684;28;20529;-90
2022/08/14 11:25:13;;;;;;;5.35;4.85;;;36.20;45.50;;;;;;5014748;28;20516;-89
2022/08/14 11:27:41;;;;;;;6.88;5.78;;;36.70;46.00;;;;;;5035779;28;20084;-90
2022/08/14 11:30:10;;;;;;;6.55;6.03;;;37.80;44.00;;;;;;5032591;28;20030;-89
2022/08/14 11:32:38;;;;;;;5.88;5.40;;;37.30;44.00;;;;;;5040017;28;20040;-90
2022/08/14 11:35:04;;;;;;;6.18;5.68;;;37.10;43.90;;;;;;5029679;28;20535;-90
2022/08/14 11:37:33;;;;;;;6.45;5.85;;;37.00;44.30;;;;;;5014880;28;20494;-89
2022/08/14 11:40:00;;;;;;;6.05;5.55;;;36.90;44.30;;;;;;5046898;28;20026;-93
2022/08/14 11:42:26;;;;;;;6.55;5.68;;;37.10;45.20;;;;;;5033986;28;20030;-90
2022/08/14 11:44:53;;;;;;;5.90;5.40;;;38.10;43.30;;;;;;5025272;28;20061;-89
2022/08/14 11:47:37;;;;;;;5.50;5.00;;;37.50;43.70;;;;;;5017761;28;20030;-89
2022/08/14 11:50:23;;;;;;;6.82;5.45;;;37.20;43.80;;;;;;5010083;28;20512;-91
2022/08/14 11:52:55;;;;;;;6.20;5.20;;;37.40;43.00;;;;;;5004625;28;20481;-90
2022/08/14 11:55:22;;;;;;;5.88;5.20;;;37.50;43.00;;;;;;5021306;28;20084;-92
2022/08/14 11:58:04;;;;;;;5.32;4.82;;;37.70;43.10;;;;;;5017539;28;20041;-93
2022/08/14 12:00:30;;;;;;;6.00;5.40;;;37.70;43.10;;;;;;5027188;28;20035;-90
2022/08/14 12:03:02;;;;;;;7.50;5.03;;;37.80;43.20;;;;;;5024810;28;20116;-92
2022/08/14 12:05:38;;;;;;;6.38;5.32;;;37.80;42.90;;;;;;5034682;28;20110;-90
2022/08/14 12:08:07;;;;;;;5.50;5.00;;;37.70;41.80;;;;;;5024231;28;20040;-91
2022/08/14 12:10:36;;;;;;;6.47;5.88;;;38.10;42.60;;;;;;5022467;28;20041;-93
2022/08/14 12:13:13;;;;;;;5.72;5.22;;;38.00;42.40;;;;;;5031591;28;20025;-90
2022/08/14 12:15:42;;;;;;;5.47;5.07;;;38.20;42.10;;;;;;5012633;28;20037;-91
2022/08/14 12:18:08;;;;;;;5.53;5.03;;;38.20;42.20;;;;;;5039430;28;20040;-91
2022/08/14 12:20:36;;;;;;;5.78;5.30;;;38.20;41.10;;;;;;5020317;28;20030;-91
2022/08/14 12:23:03;;;;;;;4.93;4.45;;;38.20;40.80;;;;;;5017465;28;20088;-90
2022/08/14 12:25:28;;;;;;;5.15;4.75;;;38.20;41.50;;;;;;5016144;28;20026;-90
2022/08/14 12:27:55;;;;;;;5.03;4.70;;;38.20;41.60;;;;;;5020035;28;20036;-90
2022/08/14 12:30:37;;;;;;;6.13;5.63;;;38.20;42.20;;;;;;5026988;28;20025;-90
2022/08/14 12:33:04;;;;;;;6.40;4.85;;;38.50;41.40;;;;;;5040965;28;20060;-91
2022/08/14 12:35:40;;;;;;;4.70;4.28;;;38.30;41.00;;;;;;5030027;28;20045;-92
2022/08/14 12:38:07;;;;;;;4.55;4.15;;;38.90;41.50;;;;;;5011688;28;20069;-91
2022/08/14 12:40:48;;;;;;;4.47;4.07;;;39.90;40.40;;;;;;4999941;28;20034;-90
2022/08/14 12:43:16;;;;;;;4.90;4.50;;;39.40;39.80;;;;;;5030508;28;20053;-91
2022/08/14 12:45:48;;;;;;;5.28;4.30;;;39.30;40.50;;;;;;5027797;28;20480;-90
2022/08/14 12:48:15;;;;;;;4.40;4.10;;;39.80;39.10;;;;;;5031621;28;20026;-91
2022/08/14 12:50:41;;;;;;;4.60;4.30;;;40.60;39.10;;;;;;5020571;28;20045;-93
2022/08/14 12:53:08;;;;;;;7.07;4.80;;;40.30;39.50;;;;;;5016908;28;20041;-92
2022/08/14 12:55:38;;;;;;;5.82;5.05;;;39.90;38.40;;;;;;5039154;28;20033;-91
2022/08/14 12:58:04;;;;;;;5.40;4.97;;;39.50;38.90;;;;;;5008567;28;20026;-91
2022/08/14 13:00:32;;;;;;;5.63;5.13;;;39.40;38.70;;;;;;5019724;28;20371;-93
2022/08/14 13:02:57;;;;;;;5.88;5.05;;;39.30;38.60;;;;;;5019525;28;20120;-91
2022/08/14 13:05:25;;;;;;;6.68;4.93;;;39.00;39.10;;;;;;5019961;28;20053;-90
2022/08/14 13:07:51;;;;;;;5.40;4.50;;;39.00;39.10;;;;;;4973017;28;20448;-90